Time;durP1;ratioP1;P1;durP2;ratioP2;P2;SDS_P1;SDS_P2;PMS_P1;PMS_P2;Temp;Humidity;BMP_temperature;BMP_pressure;BME280_temperature;BME280_humidity;BME280_pressure;Samples;Min_cycle;Max_cycle;Signal;HPM_P1;HPM_P2
2021/10/02 09:18:18;;;;;;;;;;;;;;;;;;;;;
2021/10/02 09:27:28;;;;;;;17.23;12.15;;;;;;;14.71;100.00;100904.97;2630958;36;20052;-75
2021/10/02 09:30:13;;;;;;;22.58;11.85;;;;;;;14.92;100.00;100903.69;2612569;39;20515;-78
2021/10/02 09:41:13;;;;;;;19.73;11.15;;;;;;;14.76;100.00;100903.63;2631805;36;20066;-76
2021/10/02 10:19:46;;;;;;;;;;;;;;;;;;;;;
2021/10/02 10:22:58;;;;;;;12.52;7.53;;;;;;;15.96;100.00;100855.38;2615879;36;20030;-78
2021/10/02 10:32:41;;;;;;;11.05;6.13;;;;;;;15.79;100.00;100848.28;2616331;46;20011;-77
2021/10/02 10:45:19;;;;;;;12.18;7.45;;;;;;;15.86;100.00;100822.16;2613802;36;20619;-75
2021/10/02 10:48:05;;;;;;;13.15;7.47;;;;;;;16.04;100.00;100814.63;2615209;36;20049;-75
2021/10/02 10:50:55;;;;;;;13.00;6.97;;;;;;;15.93;100.00;100798.72;2630848;36;20476;-74
2021/10/02 11:15:04;;;;;;;13.10;7.50;;;;;;;15.31;100.00;100764.84;2650414;36;20026;-76
2021/10/02 11:18:02;;;;;;;11.57;6.53;;;;;;;15.39;100.00;100761.28;2632235;36;20586;-75
2021/10/02 11:36:46;;;;;;;13.52;6.80;;;;;;;15.29;100.00;100722.66;2612627;36;20039;-75
2021/10/02 11:39:31;;;;;;;10.20;7.47;;;;;;;15.30;100.00;100710.78;2632752;36;20108;-76
2021/10/02 11:42:13;;;;;;;11.82;7.78;;;;;;;15.17;100.00;100714.84;2615975;36;20031;-76
2021/10/02 11:44:48;;;;;;;10.82;7.32;;;;;;;15.32;100.00;100709.56;2615090;36;20034;-75
2021/10/02 11:47:32;;;;;;;14.40;8.13;;;;;;;15.36;100.00;100713.66;2629603;36;20030;-75
2021/10/02 11:50:28;;;;;;;11.15;7.65;;;;;;;15.49;100.00;100705.00;2615287;36;20030;-77
2021/10/02 11:53:24;;;;;;;10.70;8.13;;;;;;;15.41;100.00;100710.41;2615510;36;20042;-75
2021/10/02 11:55:53;;;;;;;11.73;8.45;;;;;;;15.27;100.00;100702.97;2631990;36;20026;-76
2021/10/02 11:58:22;;;;;;;15.00;7.50;;;;;;;15.37;100.00;100703.63;2615756;36;20027;-74
2021/10/02 12:00:58;;;;;;;11.95;7.60;;;;;;;15.36;100.00;100708.22;2633953;36;20034;-75
2021/10/02 12:03:31;;;;;;;14.10;8.15;;;;;;;15.60;100.00;100701.06;2615017;36;20042;-76
2021/10/02 12:06:01;;;;;;;12.10;8.05;;;;;;;15.79;100.00;100701.75;2615712;36;20042;-75
2021/10/02 12:08:36;;;;;;;9.90;7.60;;;;;;;15.71;100.00;100684.44;2615780;36;20586;-74
2021/10/02 12:11:08;;;;;;;13.02;8.10;;;;;;;16.00;100.00;100677.56;2617115;36;20408;-77
2021/10/02 12:16:29;;;;;;;11.65;6.75;;;;;;;15.56;100.00;100659.03;2612872;54;20023;-75
2021/10/02 12:19:01;;;;;;;10.07;7.57;;;;;;;15.64;100.00;100652.75;2615578;36;20064;-76
2021/10/02 12:21:35;;;;;;;10.35;6.55;;;;;;;15.66;100.00;100647.97;2614753;36;20034;-75
2021/10/02 12:24:22;;;;;;;10.60;6.10;;;;;;;15.80;100.00;100631.00;2615374;36;20082;-74
2021/10/02 12:26:54;;;;;;;13.43;6.30;;;;;;;16.39;100.00;100626.97;2615781;36;20714;-75
2021/10/02 12:29:28;;;;;;;9.30;5.90;;;;;;;16.32;100.00;100606.97;2613910;36;20152;-77
2021/10/02 12:32:02;;;;;;;10.10;5.03;;;;;;;16.29;100.00;100594.59;2614738;36;20038;-76
2021/10/02 12:34:35;;;;;;;6.20;3.90;;;;;;;16.58;100.00;100585.72;2615916;31;20452;-74
2021/10/02 12:39:55;;;;;;;6.80;3.03;;;;;;;16.89;100.00;100584.81;2615889;36;20034;-73
2021/10/02 12:42:35;;;;;;;5.03;2.92;;;;;;;16.92;100.00;100572.72;2615388;36;20069;-76
2021/10/02 12:45:11;;;;;;;5.38;2.78;;;;;;;17.16;100.00;100568.91;2615082;36;20031;-77
2021/10/02 12:47:40;;;;;;;6.68;2.95;;;;;;;17.68;100.00;100567.09;2615298;31;20504;-75
2021/10/02 12:50:11;;;;;;;;;;;;;;;17.23;100.00;100569.00;2615500;36;20561;-75
2021/10/02 12:52:40;;;;;;;6.55;2.83;;;;;;;17.39;100.00;100557.94;2615266;36;20503;-76
2021/10/02 12:55:16;;;;;;;6.85;2.40;;;;;;;16.91;100.00;100555.56;2614668;36;20246;-75
2021/10/02 12:57:46;;;;;;;3.65;2.30;;;;;;;16.59;100.00;100554.81;2614571;36;20126;-74
2021/10/02 13:00:16;;;;;;;4.28;2.38;;;;;;;16.68;100.00;100546.56;2615210;36;20065;-74
2021/10/02 13:02:47;;;;;;;6.43;2.47;;;;;;;16.52;100.00;100539.41;2614839;36;20038;-75
2021/10/02 13:05:17;;;;;;;6.00;2.42;;;;;;;16.45;100.00;100523.84;2614432;36;20150;-75
2021/10/02 13:07:50;;;;;;;3.42;2.15;;;;;;;16.33;100.00;100514.44;2615101;36;20479;-75
2021/10/02 13:10:22;;;;;;;4.93;2.55;;;;;;;16.27;100.00;100505.16;2613740;36;20031;-76
2021/10/02 13:12:57;;;;;;;4.18;2.03;;;;;;;16.30;100.00;100514.81;2614622;36;20078;-72
2021/10/02 13:15:28;;;;;;;7.63;2.58;;;;;;;16.55;100.00;100509.16;2614571;36;20026;-75
2021/10/02 13:18:01;;;;;;;7.45;2.22;;;;;;;16.43;100.00;100506.91;2615682;31;20616;-73
2021/10/02 13:20:30;;;;;;;4.95;2.17;;;;;;;16.55;100.00;100490.13;2614577;36;20045;-75
2021/10/02 13:22:58;;;;;;;4.43;1.95;;;;;;;16.65;100.00;100485.28;2615131;31;20118;-76
2021/10/02 13:25:30;;;;;;;4.18;1.95;;;;;;;16.79;100.00;100480.91;2614982;36;20110;-74
2021/10/02 13:28:00;;;;;;;5.05;2.50;;;;;;;16.71;100.00;100475.53;2615179;36;20395;-73
2021/10/02 13:30:33;;;;;;;5.63;2.08;;;;;;;16.61;100.00;100467.69;2614789;36;20731;-75
2021/10/02 13:33:05;;;;;;;4.78;1.77;;;;;;;16.63;100.00;100465.63;2613821;36;20042;-75
2021/10/02 13:35:37;;;;;;;4.88;2.40;;;;;;;16.46;100.00;100471.22;2614910;36;20038;-76
2021/10/02 13:38:05;;;;;;;4.15;2.13;;;;;;;16.45;100.00;100464.09;2614559;36;20041;-74
2021/10/02 13:40:52;;;;;;;4.25;1.92;;;;;;;16.52;100.00;100468.78;2615006;36;20158;-75
2021/10/02 14:58:31;;;;;;;2.88;1.98;;;;;;;15.69;100.00;100303.91;2638225;36;20534;-74
2021/10/02 15:07:01;;;;;;;3.17;1.92;;;;;;;15.72;100.00;100299.97;2617980;36;20027;-73
2021/10/02 15:09:33;;;;;;;4.85;2.22;;;;;;;15.66;100.00;100284.44;2618549;36;20077;-75
2021/10/02 15:25:27;;;;;;;2.92;1.75;;;;;;;15.52;100.00;100256.28;2616052;36;20030;-74
2021/10/02 15:28:00;;;;;;;2.40;1.75;;;;;;;15.48;100.00;100238.69;2615406;36;20137;-77
2021/10/02 15:32:59;;;;;;;3.67;1.98;;;;;;;15.52;100.00;100234.56;2613106;36;20503;-74
2021/10/02 15:51:53;;;;;;;4.57;1.88;;;;;;;15.39;100.00;100208.06;2613799;54;20182;-73
2021/10/02 15:54:50;;;;;;;2.28;2.00;;;;;;;15.35;100.00;100204.88;2650601;36;20145;-74
2021/10/02 16:00:48;;;;;;;5.65;1.92;;;;;;;15.33;100.00;100190.66;2612036;47;20034;-74
2021/10/02 16:12:25;;;;;;;2.72;1.90;;;;;;;15.21;100.00;100165.03;2630895;36;20073;-85
2021/10/02 16:17:23;;;;;;;3.20;1.80;;;;;;;15.14;100.00;100151.38;2612890;31;20031;-81
2021/10/02 16:19:52;;;;;;;2.75;2.10;;;;;;;15.11;100.00;100142.78;2615374;36;20031;-75
2021/10/02 16:22:59;;;;;;;4.18;1.80;;;;;;;15.13;100.00;100129.88;2614357;36;20121;-75
2021/10/02 16:33:44;;;;;;;4.90;2.30;;;;;;;15.09;100.00;100104.16;2613588;47;20054;-75
2021/10/02 16:36:14;;;;;;;3.92;1.80;;;;;;;15.03;100.00;100098.44;2654936;31;20553;-75
2021/10/02 16:38:48;;;;;;;4.43;1.65;;;;;;;15.06;100.00;100084.53;2613378;36;20046;-82
2021/10/02 16:45:53;;;;;;;2.53;1.63;;;;;;;15.07;100.00;100058.25;2631153;36;20035;-75
2021/10/02 22:11:18;;;;;;;5.60;3.22;;;;;;;15.13;100.00;99360.19;2631651;36;20073;-71
2021/10/02 22:14:10;;;;;;;4.72;3.00;;;;;;;15.18;100.00;99338.72;2633409;36;20133;-73
